createdAt,value
2017-03-18T00:04:07.352Z,5.94
2017-03-18T00:09:03.676Z,5.98
2017-03-18T00:14:00.343Z,5.94
2017-03-18T00:18:57.406Z,6.09
2017-03-18T00:23:53.705Z,6.07
2017-03-18T00:28:50.366Z,5.97
2017-03-18T00:33:47.012Z,5.87
2017-03-18T00:38:43.325Z,5.68
2017-03-18T00:43:40.640Z,5.86
2017-03-18T00:48:36.778Z,5.84
2017-03-18T00:53:33.424Z,5.84
2017-03-18T00:58:29.928Z,5.94
2017-03-18T01:03:26.472Z,5.89
2017-03-18T01:08:23.325Z,5.90
2017-03-18T01:13:20.260Z,5.94
2017-03-18T01:18:16.909Z,6.07
2017-03-18T01:23:14.781Z,5.86
2017-03-18T01:28:10.948Z,5.93
2017-03-18T01:33:08.518Z,5.90
2017-03-18T01:38:05.391Z,6.05
2017-03-18T01:43:01.959Z,6.07
2017-03-18T01:47:58.708Z,6.16
2017-03-18T01:52:55.009Z,6.17
2017-03-18T01:57:52.461Z,6.30
2017-03-18T02:02:49.104Z,6.35
2017-03-18T02:07:45.495Z,6.46
2017-03-18T02:12:43.507Z,6.48
2017-03-18T02:17:39.846Z,6.62
2017-03-18T02:22:36.326Z,6.49
2017-03-18T02:27:32.695Z,6.54
2017-03-18T02:32:29.495Z,6.66
2017-03-18T02:37:25.858Z,6.67
2017-03-18T02:42:27.844Z,6.77
2017-03-18T02:47:23.389Z,6.79
2017-03-18T02:52:20.140Z,6.74
2017-03-18T02:57:16.723Z,6.69
2017-03-18T03:02:13.782Z,6.66
2017-03-18T03:07:10.123Z,6.75
2017-03-18T03:12:06.360Z,6.66
2017-03-18T03:17:02.979Z,6.66
2017-03-18T03:21:59.506Z,6.62
2017-03-18T03:26:56.092Z,6.79
2017-03-18T03:31:53.177Z,6.77
2017-03-18T03:36:49.914Z,6.82
2017-03-18T03:41:46.618Z,6.97
2017-03-18T03:46:43.296Z,6.93
2017-03-18T03:51:39.695Z,7.03
2017-03-18T03:56:36.357Z,7.07
2017-03-18T04:01:33.580Z,7.10
2017-03-18T04:06:29.954Z,7.17
2017-03-18T04:11:26.491Z,7.15
2017-03-18T04:16:22.976Z,7.29
2017-03-18T04:21:19.830Z,7.32
2017-03-18T04:26:16.378Z,7.29
2017-03-18T04:31:12.810Z,7.54
2017-03-18T04:36:09.257Z,7.56
2017-03-18T04:41:06.215Z,7.57
2017-03-18T04:46:03.252Z,7.67
2017-03-18T04:51:00.854Z,7.70
2017-03-18T04:55:57.573Z,7.70
2017-03-18T05:00:54.094Z,7.73
2017-03-18T05:05:50.634Z,7.77
2017-03-18T05:10:47.378Z,7.80
2017-03-18T05:15:44.195Z,7.91
2017-03-18T05:20:40.995Z,7.91
2017-03-18T05:25:37.782Z,7.95
2017-03-18T05:30:34.434Z,7.98
2017-03-18T05:35:30.995Z,8.12
2017-03-18T05:40:27.490Z,8.10
2017-03-18T05:45:24.244Z,8.20
2017-03-18T05:50:20.633Z,8.24
2017-03-18T05:55:17.586Z,8.33
2017-03-18T06:00:14.430Z,8.33
2017-03-18T06:05:10.890Z,8.37
2017-03-18T06:10:09.482Z,8.52
2017-03-18T06:15:05.130Z,8.61
2017-03-18T06:20:02.090Z,8.69
2017-03-18T06:24:58.943Z,8.70
2017-03-18T06:29:55.629Z,8.85
2017-03-18T06:34:52.711Z,9.04
2017-03-18T06:39:49.005Z,9.19
2017-03-18T06:44:45.502Z,9.26
2017-03-18T06:49:42.003Z,9.41
2017-03-18T06:54:38.688Z,9.48
2017-03-18T06:59:35.756Z,9.46
2017-03-18T07:04:32.162Z,9.55
2017-03-18T07:09:28.565Z,9.58
2017-03-18T07:14:25.744Z,9.62
2017-03-18T07:19:22.061Z,9.73
2017-03-18T07:24:20.184Z,9.76
2017-03-18T07:29:16.000Z,9.84
2017-03-18T07:34:12.353Z,9.84
2017-03-18T07:39:08.990Z,9.98
2017-03-18T07:44:05.575Z,9.89
2017-03-18T07:49:03.228Z,9.92
2017-03-18T07:53:59.402Z,9.95
2017-03-18T07:58:56.086Z,9.97
2017-03-18T08:03:53.544Z,10.02
2017-03-18T08:08:49.758Z,10.02
2017-03-18T08:13:46.791Z,10.07
2017-03-18T08:18:43.343Z,10.09
2017-03-18T08:23:39.962Z,10.25
2017-03-18T08:28:36.892Z,10.22
2017-03-18T08:33:33.684Z,10.25
2017-03-18T08:38:29.724Z,10.13
2017-03-18T08:43:26.582Z,10.07
2017-03-18T08:48:23.072Z,10.09
2017-03-18T08:53:22.548Z,10.01
2017-03-18T08:58:18.587Z,10.02
2017-03-18T09:03:15.015Z,9.89
2017-03-18T09:08:11.703Z,9.95
2017-03-18T09:13:08.650Z,10.35
2017-03-18T09:18:05.753Z,10.60
2017-03-18T09:23:02.396Z,10.68
2017-03-18T09:27:58.746Z,10.93
2017-03-18T09:32:55.379Z,10.86
2017-03-18T09:37:52.101Z,10.93
2017-03-18T09:42:48.276Z,10.84
2017-03-18T09:47:45.580Z,10.67
2017-03-18T09:52:41.856Z,10.23
2017-03-18T09:57:38.412Z,10.19
2017-03-18T10:02:34.643Z,10.05
2017-03-18T10:07:31.250Z,10.35
2017-03-18T10:12:28.680Z,10.54
2017-03-18T10:17:26.017Z,10.94
2017-03-18T10:22:23.909Z,11.05
2017-03-18T10:27:20.334Z,11.02
2017-03-18T10:32:16.910Z,10.94
2017-03-18T10:37:13.455Z,11.02
2017-03-18T10:42:10.199Z,11.17
2017-03-18T10:47:06.787Z,11.54
2017-03-18T10:52:03.381Z,11.59
2017-03-18T10:57:00.110Z,11.52
2017-03-18T11:01:56.935Z,11.62
2017-03-18T11:06:53.965Z,12.03
2017-03-18T11:11:50.703Z,12.28
2017-03-18T11:16:47.502Z,12.29
2017-03-18T11:21:44.353Z,12.72
2017-03-18T11:26:41.576Z,13.20
2017-03-18T11:31:39.094Z,14.33
2017-03-18T11:36:35.931Z,13.74
2017-03-18T11:41:31.705Z,12.83
2017-03-18T11:46:29.957Z,12.53
2017-03-18T11:51:25.624Z,12.45
2017-03-18T11:56:22.124Z,12.29
2017-03-18T12:01:18.874Z,12.53
2017-03-18T12:06:15.665Z,12.29
2017-03-18T12:11:12.710Z,12.45
2017-03-18T12:16:09.068Z,12.40
2017-03-18T12:21:06.960Z,12.46
2017-03-18T12:26:03.733Z,12.78
2017-03-18T12:31:02.774Z,12.75
2017-03-18T12:35:58.866Z,12.54
2017-03-18T12:40:57.435Z,12.90
2017-03-18T12:45:53.607Z,12.78
2017-03-18T12:50:49.955Z,12.75
2017-03-18T12:55:45.874Z,12.27
2017-03-18T13:00:42.043Z,12.07
2017-03-18T13:05:38.098Z,11.94
2017-03-18T13:10:34.749Z,11.84
2017-03-18T13:15:31.070Z,12.12
2017-03-18T13:20:28.549Z,12.42
2017-03-18T13:25:24.775Z,12.18
2017-03-18T13:30:22.130Z,11.97
2017-03-18T13:35:18.141Z,11.78
2017-03-18T13:40:14.648Z,11.57
2017-03-18T13:45:10.875Z,11.54
2017-03-18T13:50:09.673Z,11.57
2017-03-18T13:55:05.398Z,11.54
2017-03-18T14:00:01.465Z,11.35
2017-03-18T14:04:57.727Z,11.14
2017-03-18T14:09:54.567Z,10.94
2017-03-18T14:14:51.356Z,10.99
2017-03-18T14:19:47.552Z,11.02
2017-03-18T14:24:43.832Z,11.04
2017-03-18T14:29:42.179Z,10.94
2017-03-18T14:34:39.037Z,11.00
2017-03-18T14:39:35.565Z,10.92
2017-03-18T14:44:31.915Z,10.89
2017-03-18T14:49:28.438Z,10.75
2017-03-18T14:54:25.021Z,10.71
2017-03-18T14:59:21.655Z,10.94
2017-03-18T15:04:18.064Z,11.00
2017-03-18T15:09:14.370Z,10.89
2017-03-18T15:14:10.887Z,10.81
2017-03-18T15:19:07.833Z,11.02
2017-03-18T15:24:04.951Z,10.89
2017-03-18T15:29:01.775Z,11.04
2017-03-18T15:33:58.111Z,10.93
2017-03-18T15:38:54.776Z,10.84
2017-03-18T15:43:51.370Z,10.87
2017-03-18T15:48:47.936Z,10.90
2017-03-18T15:53:44.552Z,10.72
2017-03-18T15:58:40.892Z,10.60
2017-03-18T16:03:37.276Z,10.51
2017-03-18T16:08:36.691Z,10.44
2017-03-18T16:13:32.470Z,10.40
2017-03-18T16:18:28.851Z,10.22
2017-03-18T16:23:25.850Z,10.25
2017-03-18T16:28:22.292Z,10.19
2017-03-18T16:33:18.691Z,10.02
2017-03-18T16:38:15.212Z,10.01
2017-03-18T16:43:11.355Z,10.05
2017-03-18T16:48:08.537Z,9.99
2017-03-18T16:53:04.833Z,9.99
2017-03-18T16:58:01.285Z,9.94
2017-03-18T17:02:58.829Z,9.97
2017-03-18T17:07:54.484Z,9.99
2017-03-18T17:12:50.959Z,9.89
2017-03-18T17:17:47.450Z,9.87
2017-03-18T17:22:44.091Z,9.84
2017-03-18T17:27:42.393Z,9.91
2017-03-18T17:32:39.289Z,9.84
2017-03-18T17:37:36.251Z,9.72
2017-03-18T17:42:32.968Z,9.65
2017-03-18T17:47:29.513Z,9.55
2017-03-18T17:52:25.816Z,9.61
2017-03-18T17:57:22.968Z,9.46
2017-03-18T18:02:19.234Z,9.47
2017-03-18T18:07:16.064Z,9.47
2017-03-18T18:12:13.277Z,9.47
2017-03-18T18:17:09.736Z,9.58
2017-03-18T18:22:06.279Z,9.47
2017-03-18T18:27:02.601Z,9.51
2017-03-18T18:31:58.878Z,9.47
2017-03-18T18:36:55.510Z,9.51
2017-03-18T18:41:52.857Z,9.50
2017-03-18T18:46:49.576Z,9.48
2017-03-18T18:51:45.758Z,9.46
2017-03-18T18:56:42.577Z,9.54
2017-03-18T19:01:38.771Z,9.47
2017-03-18T19:06:35.178Z,9.50
2017-03-18T19:11:31.865Z,9.41
2017-03-18T19:16:28.468Z,9.36
2017-03-18T19:21:25.199Z,9.29
2017-03-18T19:26:21.767Z,9.36
2017-03-18T19:31:18.262Z,9.34
2017-03-18T19:36:14.395Z,9.36
2017-03-18T19:41:11.308Z,9.28
2017-03-18T19:46:07.675Z,9.14
2017-03-18T19:51:05.064Z,9.21
2017-03-18T19:56:01.314Z,9.19
2017-03-18T20:00:58.433Z,9.10
2017-03-18T20:05:54.801Z,9.10
2017-03-18T20:10:51.259Z,9.00
2017-03-18T20:15:48.744Z,9.00
2017-03-18T20:20:44.967Z,9.08
2017-03-18T20:25:42.214Z,9.04
2017-03-18T20:30:39.603Z,9.06
2017-03-18T20:35:35.766Z,9.04
2017-03-18T20:40:32.180Z,9.14
2017-03-18T20:45:28.692Z,9.02
2017-03-18T20:50:25.767Z,9.08
2017-03-18T20:55:22.147Z,9.10
2017-03-18T21:00:18.590Z,9.06
2017-03-18T21:05:15.001Z,9.08
2017-03-18T21:10:11.753Z,9.08
2017-03-18T21:15:09.247Z,9.02
2017-03-18T21:20:05.782Z,9.00
2017-03-18T21:25:02.075Z,8.95
2017-03-18T21:29:59.067Z,8.89
2017-03-18T21:34:55.519Z,8.88
2017-03-18T21:39:51.993Z,8.92
2017-03-18T21:44:48.383Z,8.88
2017-03-18T21:49:44.798Z,8.87
2017-03-18T21:54:41.429Z,8.85
2017-03-18T21:59:37.468Z,8.89
2017-03-18T22:04:33.927Z,8.95
2017-03-18T22:09:30.433Z,8.99
2017-03-18T22:14:27.592Z,9.00
2017-03-18T22:19:24.103Z,9.11
2017-03-18T22:24:20.619Z,9.02
2017-03-18T22:29:17.023Z,9.03
2017-03-18T22:34:13.558Z,9.08
2017-03-18T22:39:10.160Z,8.95
2017-03-18T22:44:06.466Z,8.95
2017-03-18T22:49:02.942Z,8.99
2017-03-18T22:53:59.848Z,8.91
2017-03-18T22:58:56.463Z,8.88
2017-03-18T23:03:52.939Z,8.84
2017-03-18T23:08:49.974Z,8.71
2017-03-18T23:13:46.499Z,8.78
2017-03-18T23:18:43.295Z,8.73
2017-03-18T23:23:39.736Z,8.73
2017-03-18T23:28:35.788Z,8.74
2017-03-18T23:33:32.091Z,8.61
2017-03-18T23:38:28.798Z,8.73
2017-03-18T23:43:25.256Z,8.70
2017-03-18T23:48:21.739Z,8.73
2017-03-18T23:53:18.059Z,8.84
2017-03-18T23:58:14.215Z,8.94
